CheckWX is a tool to help pilots better visualize weather data.  It is not intended as a substitute for an official pre-flight weather briefing.

07:14:13 UTC

SBSC TAF
Santa Cruz Airport
Rio De Janeiro, Brazil
TAF SBSC 200200Z 2006/2018 35007KT CAVOK TN19/2008Z TX29/2018Z BECMG 2015/2017 23007KT RMK PDW

Jun-20@
06:00 UTC

Jun-20 @ 06:00 UTC

Jun-20@
15:00 UTC

Jun-20 @ 15:00 UTC

TAF SBSC 200200Z 2006/2018 35007KT CAVOK TN19/2008Z TX29/2018Z
Wind
  • 350° at 7 KTS
Cloud Levels
  • No significant clouds

Jun-20@
15:00 UTC

Jun-20 @ 15:00 UTC

Jun-20@
18:00 UTC

Jun-20 @ 18:00 UTC

BECMG 2015/2017 23007KT RMK PDW

Becoming

Becoming Conditions expected by Thu, Jun 20, 2019 @ 17:00 UTC

Wind
  • 230° at 7 KTS
Cloud Levels
  • No significant clouds